Mc Rae, Arkansas
Current Conditions -  °F | °C
As of 8:56 PM on Saturday 25 Oct 2014 (Local Time) from KSRC Reporting Station
Haze Haze  
Wind Chill: 64°   Ceiling: Unl
Heat Index: 64°   Visibility: 6mi
Dew Point: 62°   Wind: 3mph
Humidity: 93%   Direction: 190°S
Pressure: 30.04"   Gusts: NA
Location:  35.1012°N, 91.8143°W
Report Text: KSRC 260156Z AUTO 19003KT 6SM BR CLR 18/17 A3004 RMK AO2 SLP178 T01780167 TSNO
Loading
Personal Weather Stations






























Interactive Weather Map
Tropical Storm Tracking
New forecast layout! Learn more

10-Day Weather Forecast

Advertisements
Track Severe Weather on mobile